7NA9 weather

Sjule Private Airstrip
Souris, North Dakota, United States

Public forecast

Using degrees Fahrenheit for public forecast. Weather courtesy of forecast.io.

Closest aviation weather report (METAR) to Sjule Private Airstrip

Closest report is Rolla Municipal Airport, 37.9 nm (70.1 km) E. Retrieved 2019/10/15 20:35 UTC (0 seconds ago):

K06D 152035Z AUTO 32012KT 10SM OVC013 02/00 A3013 RMK AO2

Closest aviation forecast (TAF) to Sjule Private Airstrip

Closest forecast is Minot Air Force Base, 43.6 nm (80.8 km) SW. Retrieved 2019/10/15 21:21 UTC (0 seconds ago):

TAF TAF KMIB 152115Z 1521/1623 31012G18KT 9999 SCT020 OVC027 QNH3015INS BECMG 1611/1612 16009KT 9999 OVC007 QNH3011INS BECMG 1619/1620 22012G18KT 9999 SCT030 QNH2987INS TX06/1521Z TN02/1612Z